Chester, Idaho
Current Conditions -  °F | °C
As of 8:53 AM on Sunday 21 Dec 2014 (Local Time) from KRXE Reporting Station
Overcast Overcast  
Wind Chill: 29°   Ceiling: 1300
Heat Index: 38°   Visibility: 10mi
Dew Point: 36°   Wind: 15mph
Humidity: 93%   Direction: 230°SW
Pressure: 29.71"   Gusts: NA
Location:  44°N, 111.57°W
Report Text: KRXE 211553Z AUTO 23013KT 10SM BKN013 OVC017 03/02 A2971 RMK AO2 PK WND 22026/1458 SLP072 T00330022
Loading
Personal Weather Stations






























Interactive Weather Map New forecast layout! Learn more

10-Day Weather Forecast

Advertisements
Track Severe Weather on mobile